createdAt,value
2023-02-11T00:04:55.134Z,185.60
2023-02-11T00:09:58.021Z,188.90
2023-02-11T00:15:00.875Z,183.90
2023-02-11T00:20:05.471Z,53.10
2023-02-11T00:25:10.229Z,179.60
2023-02-11T00:30:13.403Z,46.40
2023-02-11T00:35:16.612Z,171.40
2023-02-11T00:40:20.059Z,47.70
2023-02-11T00:45:22.884Z,54.30
2023-02-11T00:50:25.808Z,161.50
2023-02-11T00:55:28.590Z,40.40
2023-02-11T01:00:31.427Z,43.30
2023-02-11T01:05:34.559Z,41.40
2023-02-11T01:10:37.390Z,37.70
2023-02-11T01:15:40.291Z,39.50
2023-02-11T01:20:43.273Z,33.70
2023-02-11T01:25:46.649Z,34.30
2023-02-11T01:30:49.619Z,29.10
2023-02-11T01:35:53.187Z,33.10
2023-02-11T01:40:58.393Z,28.00
2023-02-11T01:46:19.375Z,33.00
2023-02-11T01:51:29.866Z,27.80
2023-02-11T01:56:55.574Z,26.30
2023-02-11T02:02:04.818Z,27.80
2023-02-11T02:07:16.601Z,23.40
2023-02-11T02:12:19.506Z,34.60
2023-02-11T02:17:38.122Z,25.90
2023-02-11T02:23:02.847Z,26.90
2023-02-11T02:29:17.809Z,23.10
2023-02-11T02:34:52.316Z,23.20
2023-02-11T02:39:55.616Z,24.40
2023-02-11T02:44:58.763Z,24.70
2023-02-11T02:50:01.877Z,23.30
2023-02-11T02:55:25.832Z,36.70
2023-02-11T03:00:45.016Z,25.30
2023-02-11T03:06:11.375Z,23.90
2023-02-11T03:11:18.520Z,33.60
2023-02-11T03:16:26.389Z,22.90
2023-02-11T03:21:32.614Z,26.50
2023-02-11T03:26:50.127Z,23.30
2023-02-11T03:32:16.335Z,23.90
2023-02-11T03:37:49.527Z,22.50
2023-02-11T03:43:22.856Z,22.10
2023-02-11T03:48:31.997Z,24.20
2023-02-11T03:53:36.502Z,20.40
2023-02-11T03:58:39.331Z,21.70
2023-02-11T04:03:42.414Z,22.30
2023-02-11T04:08:45.266Z,18.60
2023-02-11T04:13:48.132Z,22.30
2023-02-11T04:18:50.995Z,23.50
2023-02-11T04:23:53.808Z,20.60
2023-02-11T04:28:56.608Z,20.30
2023-02-11T04:33:59.472Z,23.80
2023-02-11T04:39:02.385Z,27.70
2023-02-11T04:44:05.691Z,23.60
2023-02-11T04:49:08.524Z,24.00
2023-02-11T04:54:11.844Z,22.60
2023-02-11T04:59:14.760Z,30.30
2023-02-11T05:04:17.698Z,28.50
2023-02-11T05:09:20.579Z,34.80
2023-02-11T05:14:23.386Z,28.50
2023-02-11T05:19:26.260Z,35.20
2023-02-11T05:24:29.134Z,36.90
2023-02-11T05:29:32.134Z,31.90
2023-02-11T05:34:36.396Z,29.70
2023-02-11T05:39:39.242Z,36.00
2023-02-11T05:44:42.071Z,39.80
2023-02-11T05:49:44.888Z,39.20
2023-02-11T05:54:47.910Z,38.30
2023-02-11T05:59:50.764Z,43.30
2023-02-11T06:04:53.562Z,37.30
2023-02-11T06:09:56.440Z,42.20
2023-02-11T06:14:59.270Z,42.00
2023-02-11T06:20:03.789Z,43.40
2023-02-11T06:25:07.018Z,45.40
2023-02-11T06:30:10.941Z,39.30
2023-02-11T06:35:14.698Z,40.40
2023-02-11T06:40:17.657Z,47.40
2023-02-11T06:45:20.697Z,50.60
2023-02-11T06:50:23.521Z,45.90
2023-02-11T06:55:26.890Z,41.40
2023-02-11T07:00:29.833Z,38.00
2023-02-11T07:05:34.260Z,44.40
2023-02-11T07:10:37.182Z,49.40
2023-02-11T07:15:40.001Z,44.50
2023-02-11T07:20:43.454Z,43.40
2023-02-11T07:25:46.309Z,43.40
2023-02-11T07:30:49.178Z,40.90
2023-02-11T07:35:52.520Z,36.50
2023-02-11T07:40:55.465Z,41.50
2023-02-11T07:45:58.875Z,35.90
2023-02-11T07:51:14.590Z,38.80
2023-02-11T07:56:19.309Z,37.00
2023-02-11T08:01:28.266Z,36.40
2023-02-11T08:06:34.253Z,40.80
2023-02-11T08:11:37.124Z,39.10
2023-02-11T08:16:40.830Z,34.20
2023-02-11T08:21:44.429Z,43.60
2023-02-11T08:26:47.236Z,42.80
2023-02-11T08:31:50.165Z,93.80
2023-02-11T08:36:54.426Z,49.60
2023-02-11T08:41:57.265Z,50.40
2023-02-11T08:47:00.124Z,55.20
2023-02-11T08:52:04.293Z,78.60
2023-02-11T08:57:07.617Z,102.90
2023-02-11T09:02:14.673Z,204.90
2023-02-11T09:07:17.804Z,113.10
2023-02-11T09:12:20.589Z,72.50
2023-02-11T09:17:23.456Z,115.00
2023-02-11T09:22:26.252Z,54.00
2023-02-11T09:27:29.053Z,56.80
2023-02-11T09:32:31.927Z,93.90
2023-02-11T09:37:37.218Z,57.00
2023-02-11T09:43:09.074Z,46.10
2023-02-11T09:48:19.168Z,61.30
2023-02-11T09:53:31.438Z,45.80
2023-02-11T09:58:37.279Z,44.50
2023-02-11T10:03:55.307Z,48.80
2023-02-11T10:09:10.808Z,56.30
2023-02-11T10:14:28.496Z,48.30
2023-02-11T10:19:38.842Z,49.50
2023-02-11T10:24:50.325Z,44.30
2023-02-11T10:30:30.207Z,36.40
2023-02-11T10:35:33.327Z,59.20
2023-02-11T10:40:36.206Z,62.70
2023-02-11T10:46:02.514Z,42.70
2023-02-11T10:51:23.694Z,42.30
2023-02-11T10:56:28.207Z,42.00
2023-02-11T11:01:53.640Z,39.70
2023-02-11T11:07:28.986Z,48.90
2023-02-11T11:12:42.181Z,49.80
2023-02-11T11:17:46.375Z,39.60
2023-02-11T11:28:00.715Z,36.50
2023-02-11T11:33:03.991Z,321.20
2023-02-11T11:38:07.159Z,680.40
2023-02-11T11:43:13.104Z,179.90
2023-02-11T11:48:31.450Z,111.60
2023-02-11T11:53:41.749Z,343.10
2023-02-11T11:58:44.760Z,204.00
2023-02-11T12:04:30.172Z,156.30
2023-02-11T12:10:08.044Z,174.20
2023-02-11T12:15:57.634Z,524.10
2023-02-11T12:21:35.930Z,184.00
2023-02-11T12:27:26.096Z,72.90
2023-02-11T12:32:37.838Z,64.60
2023-02-11T12:38:22.054Z,180.30
2023-02-11T12:43:38.569Z,53.60
2023-02-11T12:49:44.991Z,50.70
2023-02-11T12:55:04.774Z,43.60
2023-02-11T13:00:22.231Z,38.20
2023-02-11T13:05:37.964Z,33.30
2023-02-11T13:10:43.996Z,41.80
2023-02-11T13:16:23.083Z,38.50
2023-02-11T13:21:37.036Z,44.00
2023-02-11T13:26:47.617Z,33.80
2023-02-11T13:32:09.904Z,52.00
2023-02-11T13:37:37.797Z,49.20
2023-02-11T13:42:56.252Z,37.20
2023-02-11T13:48:02.602Z,528.70
2023-02-11T13:53:10.315Z,1437.20
2023-02-11T13:58:33.098Z,1134.30
2023-02-11T14:03:57.965Z,731.80
2023-02-11T14:09:09.686Z,563.10
2023-02-11T14:14:33.610Z,647.80
2023-02-11T14:19:43.967Z,215.80
2023-02-11T14:25:00.852Z,490.10
2023-02-11T14:30:30.142Z,511.40
2023-02-11T14:36:13.499Z,384.40
2023-02-11T14:41:30.648Z,401.30
2023-02-11T14:46:34.662Z,228.00
2023-02-11T14:51:40.893Z,438.40
2023-02-11T14:56:44.836Z,130.90
2023-02-11T15:06:59.539Z,184.70
2023-02-11T15:12:03.498Z,234.10
2023-02-11T15:22:26.014Z,263.90
2023-02-11T15:27:38.595Z,145.50
2023-02-11T15:32:45.267Z,81.20
2023-02-11T15:37:50.559Z,103.60
2023-02-11T15:43:13.944Z,61.70
2023-02-11T15:48:28.718Z,37.90
2023-02-11T15:53:41.082Z,39.30
2023-02-11T15:58:47.875Z,36.30
2023-02-11T16:03:50.933Z,45.40
2023-02-11T16:09:12.850Z,45.30
2023-02-11T16:14:31.307Z,45.60
2023-02-11T16:19:36.126Z,53.20
2023-02-11T16:24:39.579Z,54.80
2023-02-11T16:29:47.441Z,137.60
2023-02-11T16:34:51.398Z,49.50
2023-02-11T16:44:58.113Z,81.50
2023-02-11T16:50:02.808Z,33.80
2023-02-11T16:55:06.401Z,44.10
2023-02-11T17:00:11.195Z,51.90
2023-02-11T17:05:22.981Z,30.50
2023-02-11T17:10:25.918Z,36.00
2023-02-11T17:15:28.942Z,46.50
2023-02-11T17:20:31.809Z,42.00
2023-02-11T17:25:37.272Z,174.90
2023-02-11T17:30:43.569Z,85.00
2023-02-11T17:35:46.542Z,106.20
2023-02-11T17:40:58.882Z,199.10
2023-02-11T17:46:01.790Z,240.90
2023-02-11T17:51:26.910Z,65.30
2023-02-11T17:56:33.264Z,59.40
2023-02-11T18:01:38.638Z,66.60
2023-02-11T18:06:41.555Z,77.20
2023-02-11T18:11:44.579Z,57.30
2023-02-11T18:16:53.007Z,249.00
2023-02-11T18:21:55.917Z,54.10
2023-02-11T18:26:59.004Z,66.60
2023-02-11T18:32:01.923Z,63.50
2023-02-11T18:37:04.755Z,58.40
2023-02-11T18:42:07.592Z,43.30
2023-02-11T18:47:10.409Z,51.50
2023-02-11T18:52:13.226Z,132.80
2023-02-11T18:57:16.023Z,159.80
2023-02-11T19:02:18.916Z,231.70
2023-02-11T19:07:21.744Z,212.80
2023-02-11T19:12:24.835Z,59.60
2023-02-11T19:17:27.779Z,36.00
2023-02-11T19:22:30.625Z,64.90
2023-02-11T19:27:33.860Z,48.60
2023-02-11T19:32:36.871Z,41.60
2023-02-11T19:37:39.698Z,109.90
2023-02-11T19:42:42.828Z,61.90
2023-02-11T19:47:45.654Z,62.10
2023-02-11T19:52:48.530Z,47.10
2023-02-11T19:57:51.354Z,40.50
2023-02-11T20:02:54.281Z,39.70
2023-02-11T20:07:58.155Z,39.50
2023-02-11T20:18:03.955Z,38.90
2023-02-11T20:23:06.770Z,40.70
2023-02-11T20:28:09.613Z,36.20
2023-02-11T20:33:12.445Z,49.80
2023-02-11T20:38:15.272Z,49.60
2023-02-11T20:43:19.082Z,53.70
2023-02-11T20:53:24.627Z,50.20
2023-02-11T20:58:27.469Z,55.00
2023-02-11T21:03:30.339Z,53.80
2023-02-11T21:08:33.237Z,52.10
2023-02-11T21:13:37.527Z,53.40
2023-02-11T21:18:40.558Z,61.60
2023-02-11T21:23:43.707Z,66.40
2023-02-11T21:28:46.605Z,62.10
2023-02-11T21:33:50.940Z,51.80
2023-02-11T21:38:53.906Z,66.40
2023-02-11T21:43:57.732Z,58.40
2023-02-11T21:49:00.606Z,50.50
2023-02-11T21:54:03.982Z,67.40
2023-02-11T21:59:06.853Z,63.30
2023-02-11T22:04:09.824Z,62.90
2023-02-11T22:09:13.004Z,70.60
2023-02-11T22:14:16.449Z,56.80
2023-02-11T22:19:19.304Z,72.10
2023-02-11T22:24:22.139Z,71.50
2023-02-11T22:29:24.944Z,67.30
2023-02-11T22:34:27.805Z,59.40
2023-02-11T22:39:30.991Z,63.30
2023-02-11T22:44:33.808Z,56.10
2023-02-11T22:49:39.591Z,58.40
2023-02-11T22:54:42.491Z,67.70
2023-02-11T22:59:45.395Z,56.60
2023-02-11T23:04:49.926Z,54.90
2023-02-11T23:09:52.846Z,56.20
2023-02-11T23:14:55.650Z,53.00
2023-02-11T23:19:58.509Z,47.80
2023-02-11T23:25:01.371Z,62.80
2023-02-11T23:30:05.253Z,51.20
2023-02-11T23:35:08.370Z,55.70
2023-02-11T23:40:11.915Z,53.40
2023-02-11T23:45:15.434Z,59.90
2023-02-11T23:50:18.587Z,59.20
2023-02-11T23:55:21.517Z,49.30
